الصفحة الرئيسية
METAR-TAF:

METAR-TAF

مطار :

أنقرة Güvercinlik, تركيا

دائرة عرض: 39-56N, خط طول: 032-45E, ارتفاع: 819 متر

METAR: مفقودة

زمن: 05:23 (02:23 UTC)

توقعات

تاريخ ووقت الإصدار 3ساعات و 43 دقيقة قبل الساعة 22:40UTC
التوقعات صالحة من04 الساعة 00 UTC إلى 04 الساعة 09 UTC
ريح 2 عقدةمن اتجاهات متغيرة
الرؤية 10 كم أو أكثر
الغيوم لا تقل 1500 م ولا وجود لمزنة ركامية السحاب الأسود

TAF: LTAB 032240Z 0400/0409 VRB02KT CAVOK

أرصاد الطقس والتوقعات من أكثر من 4000 مطار (تقارير الطقس للمطار METAR والتنبؤ بالطقس بالمطارTAF).

المحطات المتاحة هي النقط الصفراء والحمراء على الخريطة.

حرك المؤشر فوق النقطة لمعرفة اسم المحطة.

ثم انقر لمعرفة أرصاد وتوقعات الطقس.

لتغيير الخارطة: اضغط على الأزرار الخضراء مع رمز الصليب الأسود للتكبير. على الزر الأخضر مع شرطة للتصغير، أو على الأسهم الخضراء للخرائط المجاورة.


METAR-TAF: